Time,TemperatureF,DewpointF,PressureIn,WindDirection,WindDirectionDegrees,WindSpeedMPH,WindSpeedGustMPH,Humidity,HourlyPrecipIn,Conditions,Clouds,dailyrainin,SoftwareType,DateUTC
2013-09-23 00:01:00,63.7,57.1,29.84,NNE,23,0.0,0.0,79,0.00,,,0.00,WUHU216HW,2013-09-23 04:01:00,
2013-09-23 00:02:00,63.7,57.1,29.84,NNE,23,0.0,0.0,79,0.00,,,0.00,WUHU216HW,2013-09-23 04:02:00,
2013-09-23 00:07:00,63.7,57.1,29.84,NNE,23,0.0,0.0,79,0.00,,,0.00,WUHU216HW,2013-09-23 04:07:00,
2013-09-23 00:29:00,63.0,56.3,29.85,North,0,0.0,0.0,79,0.00,,,0.00,WUHU216HW,2013-09-23 04:29:00,
2013-09-23 00:34:00,63.0,56.3,29.85,North,0,0.0,0.0,79,0.00,,,0.00,WUHU216HW,2013-09-23 04:34:00,
2013-09-23 00:59:00,62.3,56.0,29.85,North,0,0.0,0.0,80,0.00,,,0.00,WUHU216HW,2013-09-23 04:59:00,
2013-09-23 01:04:00,62.3,56.0,29.85,North,0,0.0,0.0,80,0.00,,,0.00,WUHU216HW,2013-09-23 05:04:00,
2013-09-23 01:29:00,61.7,55.9,29.86,North,0,0.0,0.0,81,0.00,,,0.00,WUHU216HW,2013-09-23 05:29:00,
2013-09-23 01:34:00,61.7,55.9,29.86,North,0,0.0,0.0,81,0.00,,,0.00,WUHU216HW,2013-09-23 05:34:00,
2013-09-23 01:59:00,61.4,55.5,29.87,North,0,0.0,0.0,81,0.00,,,0.00,WUHU216HW,2013-09-23 05:59:00,
2013-09-23 02:04:00,61.4,55.5,29.87,North,0,0.0,0.0,81,0.00,,,0.00,WUHU216HW,2013-09-23 06:04:00,
2013-09-23 02:29:00,61.4,55.9,29.87,NNE,23,0.0,0.0,82,0.00,,,0.00,WUHU216HW,2013-09-23 06:29:00,
2013-09-23 02:34:00,61.4,55.9,29.87,NNE,23,0.0,0.0,82,0.00,,,0.00,WUHU216HW,2013-09-23 06:34:00,
2013-09-23 02:59:00,60.7,55.2,29.87,North,0,0.0,0.0,82,0.00,,,0.00,WUHU216HW,2013-09-23 06:59:00,
2013-09-23 03:04:00,60.7,55.2,29.87,North,0,0.0,0.0,82,0.00,,,0.00,WUHU216HW,2013-09-23 07:04:00,
2013-09-23 03:29:00,60.1,54.4,29.88,NNE,23,0.0,0.0,81,0.00,,,0.00,WUHU216HW,2013-09-23 07:29:00,
2013-09-23 03:34:00,60.1,54.4,29.88,NNE,23,0.0,0.0,81,0.00,,,0.00,WUHU216HW,2013-09-23 07:34:00,
2013-09-23 03:59:00,59.8,53.6,29.88,NE,45,0.0,0.0,80,0.00,,,0.00,WUHU216HW,2013-09-23 07:59:00,
2013-09-23 04:04:00,59.8,53.6,29.88,NE,45,0.0,0.0,80,0.00,,,0.00,WUHU216HW,2013-09-23 08:04:00,
2013-09-23 04:29:00,59.2,52.7,29.89,North,0,0.0,0.0,79,0.00,,,0.00,WUHU216HW,2013-09-23 08:29:00,
2013-09-23 04:34:00,59.2,52.7,29.89,North,0,0.0,0.0,79,0.00,,,0.00,WUHU216HW,2013-09-23 08:34:00,
2013-09-23 04:59:00,58.5,52.0,29.90,North,0,0.0,0.0,79,0.00,,,0.00,WUHU216HW,2013-09-23 08:59:00,
2013-09-23 05:04:00,58.5,52.0,29.90,North,0,0.0,0.0,79,0.00,,,0.00,WUHU216HW,2013-09-23 09:04:00,
2013-09-23 05:29:00,58.0,51.1,29.90,NE,45,0.0,0.0,78,0.00,,,0.00,WUHU216HW,2013-09-23 09:29:00,
2013-09-23 05:34:00,58.0,51.1,29.90,NE,45,0.0,0.0,78,0.00,,,0.00,WUHU216HW,2013-09-23 09:34:00,
2013-09-23 05:59:00,57.4,50.6,29.92,NNE,23,0.0,0.0,78,0.00,,,0.00,WUHU216HW,2013-09-23 09:59:00,
2013-09-23 06:04:00,57.4,50.6,29.92,NNE,23,0.0,0.0,78,0.00,,,0.00,WUHU216HW,2013-09-23 10:04:00,
2013-09-23 06:29:00,56.9,50.0,29.94,North,0,0.0,0.0,78,0.00,,,0.00,WUHU216HW,2013-09-23 10:29:00,
2013-09-23 06:34:00,56.9,50.0,29.94,North,0,0.0,0.0,78,0.00,,,0.00,WUHU216HW,2013-09-23 10:34:00,
2013-09-23 06:59:00,56.5,50.0,29.95,NNE,23,0.0,0.0,79,0.00,,,0.00,WUHU216HW,2013-09-23 10:59:00,
2013-09-23 07:04:00,56.5,50.0,29.95,NNE,23,0.0,0.0,79,0.00,,,0.00,WUHU216HW,2013-09-23 11:04:00,
2013-09-23 07:29:00,56.2,49.7,29.95,NNE,23,0.0,0.0,79,0.00,,,0.00,WUHU216HW,2013-09-23 11:29:00,
2013-09-23 07:34:00,56.2,49.7,29.95,NNE,23,0.0,0.0,79,0.00,,,0.00,WUHU216HW,2013-09-23 11:34:00,
2013-09-23 08:29:00,57.1,50.2,29.98,NNE,23,0.0,0.0,78,0.00,,,0.00,WUHU216HW,2013-09-23 12:29:00,
2013-09-23 08:34:00,57.1,50.2,29.98,NNE,23,0.0,0.0,78,0.00,,,0.00,WUHU216HW,2013-09-23 12:34:00,
2013-09-23 08:59:00,58.0,50.8,29.98,NNW,338,0.0,0.0,77,0.00,,,0.00,WUHU216HW,2013-09-23 12:59:00,
2013-09-23 09:04:00,58.0,50.8,29.98,NNW,338,0.0,0.0,77,0.00,,,0.00,WUHU216HW,2013-09-23 13:04:00,
2013-09-23 09:29:00,59.0,51.1,29.98,NE,45,0.0,0.0,75,0.00,,,0.00,WUHU216HW,2013-09-23 13:29:00,
2013-09-23 09:34:00,59.0,51.1,29.98,NE,45,0.0,0.0,75,0.00,,,0.00,WUHU216HW,2013-09-23 13:34:00,
2013-09-23 09:59:00,60.3,51.3,29.99,ENE,68,0.0,0.0,72,0.00,,,0.00,WUHU216HW,2013-09-23 13:59:00,
2013-09-23 10:04:00,60.3,51.3,29.99,ENE,68,0.0,0.0,72,0.00,,,0.00,WUHU216HW,2013-09-23 14:04:00,
2013-09-23 10:29:00,61.6,51.8,30.00,NNE,23,0.0,0.0,70,0.00,,,0.00,WUHU216HW,2013-09-23 14:29:00,
2013-09-23 10:34:00,61.6,51.8,30.00,NNE,23,0.0,0.0,70,0.00,,,0.00,WUHU216HW,2013-09-23 14:34:00,
2013-09-23 10:59:00,62.6,51.1,30.00,ENE,68,0.0,0.0,66,0.00,,,0.00,WUHU216HW,2013-09-23 14:59:00,
2013-09-23 11:04:00,62.6,51.1,30.00,ENE,68,0.0,0.0,66,0.00,,,0.00,WUHU216HW,2013-09-23 15:04:00,
2013-09-23 11:29:00,63.5,51.9,30.00,SE,135,0.0,0.0,66,0.00,,,0.00,WUHU216HW,2013-09-23 15:29:00,
2013-09-23 11:34:00,63.5,51.9,30.00,SE,135,0.0,0.0,66,0.00,,,0.00,WUHU216HW,2013-09-23 15:34:00,
2013-09-23 11:59:00,65.0,52.9,30.00,West,270,0.0,0.0,65,0.00,,,0.00,WUHU216HW,2013-09-23 15:59:00,
2013-09-23 12:04:00,65.0,52.9,30.00,West,270,0.0,0.0,65,0.00,,,0.00,WUHU216HW,2013-09-23 16:04:00,
2013-09-23 12:29:00,65.5,53.4,30.00,SE,135,0.0,0.0,65,0.00,,,0.00,WUHU216HW,2013-09-23 16:29:00,
2013-09-23 12:34:00,65.5,53.4,30.00,SE,135,0.0,0.0,65,0.00,,,0.00,WUHU216HW,2013-09-23 16:34:00,
2013-09-23 12:59:00,67.3,53.5,29.99,North,0,0.0,0.0,61,0.00,,,0.00,WUHU216HW,2013-09-23 16:59:00,
2013-09-23 13:04:00,67.3,53.5,29.99,North,0,0.0,0.0,61,0.00,,,0.00,WUHU216HW,2013-09-23 17:04:00,
2013-09-23 13:29:00,69.5,55.5,29.98,North,0,0.0,0.0,61,0.00,,,0.00,WUHU216HW,2013-09-23 17:29:00,
2013-09-23 13:34:00,69.5,55.5,29.98,North,0,0.0,0.0,61,0.00,,,0.00,WUHU216HW,2013-09-23 17:34:00,
2013-09-23 13:59:00,70.0,55.1,29.98,NNE,23,0.0,0.0,59,0.00,,,0.00,WUHU216HW,2013-09-23 17:59:00,
2013-09-23 14:04:00,70.0,55.1,29.98,NNE,23,0.0,0.0,59,0.00,,,0.00,WUHU216HW,2013-09-23 18:04:00,
2013-09-23 14:29:00,70.0,55.1,29.97,ENE,68,0.0,0.0,59,0.00,,,0.00,WUHU216HW,2013-09-23 18:29:00,
2013-09-23 14:34:00,70.0,55.1,29.97,ENE,68,0.0,0.0,59,0.00,,,0.00,WUHU216HW,2013-09-23 18:34:00,
2013-09-23 14:59:00,70.2,54.7,29.97,NNW,338,0.0,0.0,58,0.00,,,0.00,WUHU216HW,2013-09-23 18:59:00,
2013-09-23 15:04:00,70.2,54.7,29.97,NNW,338,0.0,0.0,58,0.00,,,0.00,WUHU216HW,2013-09-23 19:04:00,
2013-09-23 15:29:00,70.6,55.6,29.96,North,0,0.0,0.0,59,0.00,,,0.00,WUHU216HW,2013-09-23 19:29:00,
2013-09-23 15:34:00,70.6,55.6,29.96,North,0,0.0,0.0,59,0.00,,,0.00,WUHU216HW,2013-09-23 19:34:00,
2013-09-23 15:59:00,71.1,56.1,29.96,NE,45,0.0,0.0,59,0.00,,,0.00,WUHU216HW,2013-09-23 19:59:00,
2013-09-23 16:04:00,71.1,56.1,29.96,NE,45,0.0,0.0,59,0.00,,,0.00,WUHU216HW,2013-09-23 20:04:00,
2013-09-23 16:29:00,70.9,55.9,29.96,SSW,203,0.0,0.0,59,0.00,,,0.00,WUHU216HW,2013-09-23 20:29:00,
2013-09-23 16:34:00,70.9,55.9,29.96,SSW,203,0.0,0.0,59,0.00,,,0.00,WUHU216HW,2013-09-23 20:34:00,
2013-09-23 16:59:00,71.3,55.7,29.96,NNE,23,0.0,0.0,58,0.00,,,0.00,WUHU216HW,2013-09-23 20:59:00,
2013-09-23 17:04:00,71.3,55.7,29.96,NNE,23,0.0,0.0,58,0.00,,,0.00,WUHU216HW,2013-09-23 21:04:00,
2013-09-23 17:29:00,70.0,55.6,29.96,North,0,0.0,0.0,60,0.00,,,0.00,WUHU216HW,2013-09-23 21:29:00,
2013-09-23 17:34:00,70.0,55.6,29.96,North,0,0.0,0.0,60,0.00,,,0.00,WUHU216HW,2013-09-23 21:34:00,
2013-09-23 17:59:00,69.5,55.5,29.96,NNW,338,0.0,0.0,61,0.00,,,0.00,WUHU216HW,2013-09-23 21:59:00,
2013-09-23 18:04:00,69.5,55.5,29.96,NNW,338,0.0,0.0,61,0.00,,,0.00,WUHU216HW,2013-09-23 22:04:00,
2013-09-23 18:29:00,68.9,55.8,29.97,South,180,0.0,0.0,63,0.00,,,0.00,WUHU216HW,2013-09-23 22:29:00,
2013-09-23 18:34:00,68.9,55.8,29.97,South,180,0.0,0.0,63,0.00,,,0.00,WUHU216HW,2013-09-23 22:34:00,
2013-09-23 18:59:00,68.2,56.0,29.98,West,270,0.0,0.0,65,0.00,,,0.00,WUHU216HW,2013-09-23 22:59:00,
2013-09-23 19:04:00,68.2,56.0,29.98,West,270,0.0,0.0,65,0.00,,,0.00,WUHU216HW,2013-09-23 23:04:00,
2013-09-23 19:29:00,67.1,55.8,29.98,West,270,0.0,0.0,67,0.00,,,0.00,WUHU216HW,2013-09-23 23:29:00,
2013-09-23 19:34:00,67.1,55.8,29.98,West,270,0.0,0.0,67,0.00,,,0.00,WUHU216HW,2013-09-23 23:34:00,
2013-09-23 19:59:00,65.3,55.4,29.98,WNW,293,0.0,0.0,70,0.00,,,0.00,WUHU216HW,2013-09-23 23:59:00,
2013-09-23 20:04:00,65.3,55.4,29.98,WNW,293,0.0,0.0,70,0.00,,,0.00,WUHU216HW,2013-09-24 00:04:00,
2013-09-23 20:05:00,65.3,55.4,29.98,WNW,293,0.0,0.0,70,0.00,,,0.00,WUHU216HW,2013-09-24 00:05:00,
2013-09-23 20:29:00,64.4,55.3,29.99,WNW,293,0.0,0.0,72,0.00,,,0.00,WUHU216HW,2013-09-24 00:29:00,
2013-09-23 20:34:00,64.4,55.3,29.99,WNW,293,0.0,0.0,72,0.00,,,0.00,WUHU216HW,2013-09-24 00:34:00,
2013-09-23 20:59:00,63.7,55.3,29.99,WSW,248,0.0,0.0,74,0.00,,,0.00,WUHU216HW,2013-09-24 00:59:00,
2013-09-23 21:04:00,63.7,55.3,29.99,WSW,248,0.0,0.0,74,0.00,,,0.00,WUHU216HW,2013-09-24 01:04:00,
2013-09-23 21:29:00,62.8,55.1,29.99,WNW,293,0.0,0.0,76,0.00,,,0.00,WUHU216HW,2013-09-24 01:29:00,
2013-09-23 21:34:00,62.8,55.1,29.99,WNW,293,0.0,0.0,76,0.00,,,0.00,WUHU216HW,2013-09-24 01:34:00,
2013-09-23 21:59:00,62.3,54.5,29.99,NNW,338,0.0,0.0,76,0.00,,,0.00,WUHU216HW,2013-09-24 01:59:00,
2013-09-23 22:04:00,62.3,54.5,29.99,NNW,338,0.0,0.0,76,0.00,,,0.00,WUHU216HW,2013-09-24 02:04:00,
2013-09-23 22:09:00,62.3,54.5,29.99,NNW,338,0.0,0.0,76,0.00,,,0.00,WUHU216HW,2013-09-24 02:09:00,
2013-09-23 22:29:00,61.6,54.3,30.00,NNW,338,0.0,0.0,77,0.00,,,0.00,WUHU216HW,2013-09-24 02:29:00,
2013-09-23 22:34:00,61.6,54.3,30.00,NNW,338,0.0,0.0,77,0.00,,,0.00,WUHU216HW,2013-09-24 02:34:00,
2013-09-23 22:59:00,60.8,54.0,30.01,NW,315,0.0,0.0,78,0.00,,,0.00,WUHU216HW,2013-09-24 02:59:00,
2013-09-23 23:04:00,60.8,54.0,30.01,NW,315,0.0,0.0,78,0.00,,,0.00,WUHU216HW,2013-09-24 03:04:00,
2013-09-23 23:29:00,60.1,53.6,30.02,NW,315,0.0,0.0,79,0.00,,,0.00,WUHU216HW,2013-09-24 03:29:00,
2013-09-23 23:34:00,60.1,53.6,30.02,NW,315,0.0,0.0,79,0.00,,,0.00,WUHU216HW,2013-09-24 03:34:00,
2013-09-23 23:59:00,59.4,53.3,30.02,NW,315,0.0,0.0,80,0.00,,,0.00,WUHU216HW,2013-09-24 03:59:00,